Salina, KS (67401)

01:57 CDT le 26 octobre 2014 (GMT -0500)
Peters Science Hall | Change Station
CLOSE
Current Station
Stations météorologiques personnelles
Location: Salina, KS
Altitude: 1225 ft
Stations météo à proximité

Alt. 1225 ft 38.81 °N, 97.61 °W | Updated 9 seconds ago

Ciel dégagé
Ciel dégagé
65.8 ° F
Paraît 65.8 ° F
N
5.0
Vent Variable Vent de SSE
Gusts 5.0 mph

Aujourd'hui
Haut(e) -- | Bas -- ° F
--% Risque de précip.
Hier
Haut(e) -- | Bas -- ° F
Precip. -- pouce
7:51 AM 6:37 PM
Lune montante, 6% visible
Pression 29.86 pouce
Visibilité 10.0 Miles terrestres
Nuages Ciel dégagé
Point de rosée 58 ° F
Humidité 76%
Précipitations 0.00 pouce
Profondeur de la couche neigeuse Non disponible.
UV 0.0 sur 12
Pollen 3.10 sur 12
Qualité de l'air Non disponible.
Flu Activity No Activity
METAR KSLN 260653Z AUTO 16009KT 10SM CLR 17/14 A2989 RMK AO2 SLP111 T01720144

More Conditions Fewer Conditions

Pression 29.86 pouce
Visibilité 10.0 Miles terrestres
Nuages Ciel dégagé
Point de rosée 58 ° F
Humidité 76%
Précipitations 0.00 pouce
Profondeur de la couche neigeuse Non disponible.
UV 0.0 sur 12
Pollen 3.10 sur 12
Qualité de l'air Non disponible.
Flu Activity No Activity
METAR KSLN 260653Z AUTO 16009KT 10SM CLR 17/14 A2989 RMK AO2 SLP111 T01720144

More Conditions Fewer Conditions

10-Day Weather Forecast

Almanac

Astronomie

Oct. 26, 2014 Lever Coucher
Temps réel 07:51 CDT 18:37 CDT
Crépuscule civil 07:24 CDT 19:04 CDT
Crépuscule nautique 06:52 CDT 19:35 CDT
Crépuscule astronomique 06:21 CDT 20:06 CDT
Lune 10:29 CDT 20:51 CDT
Durée de lumière visible 11h 40m
Longueur du jour
10h 45m
Tomorrow will be 2m 18s shorter.
Lune montante, 6% of the Moon is Illuminated
Aujourd'hui
Lune montante
Oct 30
Premier quartier
Nov 6
Pleine lune
Nov 14
Dernier quartier
Nov 22
Nouveau

Extrêmes aujourd'hui

State Highs State Lows

Community

WunderPhotos

Upload Photos

1,765,117 Photos téléchargées !

Nearby

Épaisseur de neige

Station Depth Altitude
Pas de nouvelles chutes de neige

Activité sismique

Ville Distance Mag. Time & Date
Anthony, Kansas 125 Miles terrestres 2.7 04:24 CDT
2014-10-24
Anthony, Kansas 127 Miles terrestres 2.7 21:47 CDT
2014-10-22
Anthony, Kansas 126 Miles terrestres 3.3 18:48 CDT
2014-10-22
Minimum magnitude displayed is 2.5.

Températures des eaux côtières

Lieu Température
Aucun rapport de station

Stations météo à proximité